Time;durP1;ratioP1;P1;durP2;ratioP2;P2;SDS_P1;SDS_P2;PMS_P1;PMS_P2;Temp;Humidity;BMP_temperature;BMP_pressure;BME280_temperature;BME280_humidity;BME280_pressure;Samples;Min_cycle;Max_cycle;Signal;HPM_P1;HPM_P2
2021/05/14 00:01:44;;;;;;;1.10;1.10;;;9.30;99.90;;;;;;5053656;28;20464;-81
2021/05/14 00:04:11;;;;;;;0.93;0.93;;;9.20;99.90;;;;;;5053601;28;20445;-81
2021/05/14 00:06:38;;;;;;;2.30;1.60;;;9.20;99.90;;;;;;5054280;28;20458;-81
2021/05/14 00:09:04;;;;;;;1.20;1.20;;;9.20;99.90;;;;;;5053557;28;20485;-81
2021/05/14 00:11:31;;;;;;;3.40;0.93;;;9.10;99.90;;;;;;5053787;28;20446;-81
2021/05/14 00:13:59;;;;;;;1.47;1.07;;;9.10;99.90;;;;;;5053455;28;20957;-81
2021/05/14 00:16:25;;;;;;;0.90;0.90;;;9.10;99.90;;;;;;5053699;28;20453;-81
2021/05/14 00:18:51;;;;;;;1.17;1.07;;;9.10;99.90;;;;;;5053659;28;20473;-81
2021/05/14 00:21:18;;;;;;;1.00;0.90;;;9.10;99.90;;;;;;5053644;28;20453;-81
2021/05/14 00:23:45;;;;;;;1.50;0.93;;;9.10;99.90;;;;;;5053338;28;20457;-81
2021/05/14 00:26:11;;;;;;;1.90;0.83;;;9.00;99.90;;;;;;5053446;28;20456;-81
2021/05/14 00:28:37;;;;;;;1.03;0.90;;;9.00;99.90;;;;;;5053481;28;20462;-80
2021/05/14 00:31:03;;;;;;;1.47;1.37;;;9.00;99.90;;;;;;5053417;28;20535;-81
2021/05/14 00:33:30;;;;;;;1.10;1.00;;;9.00;99.90;;;;;;5053473;28;20445;-81
2021/05/14 00:35:56;;;;;;;2.53;0.80;;;9.00;99.90;;;;;;5053481;28;20456;-81
2021/05/14 00:38:22;;;;;;;1.37;0.90;;;9.00;99.90;;;;;;5053373;28;20488;-81
2021/05/14 00:40:49;;;;;;;0.80;0.80;;;9.00;99.90;;;;;;5053372;28;20802;-81
2021/05/14 00:43:15;;;;;;;0.80;0.80;;;9.00;99.90;;;;;;5053347;28;20507;-81
2021/05/14 00:45:42;;;;;;;1.50;1.07;;;9.00;99.90;;;;;;5052771;28;20896;-81
2021/05/14 00:48:08;;;;;;;0.97;0.90;;;9.00;99.90;;;;;;5053230;28;20523;-81
2021/05/14 00:50:34;;;;;;;1.70;1.00;;;8.90;99.90;;;;;;5052873;28;21008;-81
2021/05/14 00:53:00;;;;;;;1.10;1.00;;;8.90;99.90;;;;;;5052941;28;20986;-81
2021/05/14 00:55:27;;;;;;;3.50;0.87;;;8.90;99.90;;;;;;5053223;28;20454;-81
2021/05/14 00:57:54;;;;;;;1.53;1.07;;;8.90;99.90;;;;;;5053176;28;20449;-81
2021/05/14 01:00:21;;;;;;;1.17;1.07;;;8.90;99.90;;;;;;5052865;28;20965;-81
2021/05/14 01:02:51;;;;;;;1.30;0.97;;;8.90;99.90;;;;;;5053169;28;20445;-81
2021/05/14 01:05:17;;;;;;;0.93;0.90;;;8.90;99.90;;;;;;5053469;28;20540;-81
2021/05/14 01:07:43;;;;;;;0.90;0.80;;;8.90;99.90;;;;;;5053012;28;20446;-81
2021/05/14 01:10:10;;;;;;;1.77;1.00;;;8.90;99.90;;;;;;5052684;28;20853;-81
2021/05/14 01:12:37;;;;;;;1.47;0.97;;;8.90;99.90;;;;;;5053086;28;20456;-81
2021/05/14 01:15:05;;;;;;;1.30;1.20;;;8.80;99.90;;;;;;5053113;28;20438;-81
2021/05/14 01:17:33;;;;;;;0.83;0.83;;;8.80;99.90;;;;;;5052741;28;20452;-81
2021/05/14 01:20:00;;;;;;;1.33;0.77;;;8.70;99.90;;;;;;5053026;28;20453;-81
2021/05/14 01:22:28;;;;;;;3.00;1.30;;;8.70;99.90;;;;;;5053663;28;20514;-81
2021/05/14 01:24:54;;;;;;;1.20;1.20;;;8.70;99.90;;;;;;5052894;28;20442;-81
2021/05/14 01:27:21;;;;;;;3.53;1.10;;;8.70;99.90;;;;;;5052970;28;20426;-81
2021/05/14 01:29:47;;;;;;;0.90;0.80;;;8.70;99.90;;;;;;5052529;28;20488;-82
2021/05/14 01:32:14;;;;;;;1.00;1.00;;;8.60;99.90;;;;;;5052880;28;20516;-81
2021/05/14 01:34:40;;;;;;;0.90;0.90;;;8.60;99.90;;;;;;5052582;28;20928;-81
2021/05/14 01:37:07;;;;;;;1.60;1.13;;;8.60;99.90;;;;;;5052873;28;20449;-81
2021/05/14 01:39:34;;;;;;;1.20;0.90;;;8.60;99.90;;;;;;5055762;28;20474;-81
2021/05/14 01:42:02;;;;;;;3.43;1.10;;;8.50;99.90;;;;;;5056615;28;20495;-81
2021/05/14 01:44:28;;;;;;;0.80;0.80;;;8.50;99.90;;;;;;5057039;28;20964;-81
2021/05/14 01:46:55;;;;;;;1.20;1.10;;;8.50;99.90;;;;;;5056146;28;20538;-81
2021/05/14 01:49:21;;;;;;;0.90;0.90;;;8.50;99.90;;;;;;5056297;28;20493;-81
2021/05/14 01:51:48;;;;;;;0.83;0.83;;;8.50;99.90;;;;;;5056370;28;20449;-81
2021/05/14 01:54:14;;;;;;;1.30;1.20;;;8.50;99.90;;;;;;5056345;28;20457;-81
2021/05/14 01:56:45;;;;;;;3.00;1.30;;;8.50;99.90;;;;;;5056341;28;20522;-82
2021/05/14 01:59:11;;;;;;;1.10;1.10;;;8.40;99.90;;;;;;5056705;28;20868;-81
2021/05/14 02:01:38;;;;;;;1.97;0.93;;;8.40;99.90;;;;;;5056277;28;20430;-82
2021/05/14 02:04:04;;;;;;;1.20;1.10;;;8.40;99.90;;;;;;5056198;28;20456;-81
2021/05/14 02:06:30;;;;;;;1.10;1.00;;;8.30;99.90;;;;;;5056190;28;20452;-81
2021/05/14 02:08:57;;;;;;;1.73;1.17;;;8.30;99.90;;;;;;5055980;28;20476;-82
2021/05/14 02:11:23;;;;;;;1.37;1.27;;;8.30;99.90;;;;;;5056069;28;20453;-83
2021/05/14 02:13:50;;;;;;;0.90;0.90;;;8.20;99.90;;;;;;5056019;28;20448;-82
2021/05/14 02:16:16;;;;;;;1.03;0.97;;;8.20;99.90;;;;;;5055703;28;20495;-82
2021/05/14 02:18:44;;;;;;;1.20;1.10;;;8.30;99.90;;;;;;5055868;28;20462;-81
2021/05/14 02:21:10;;;;;;;0.90;0.90;;;8.30;99.90;;;;;;5055933;28;20458;-82
2021/05/14 02:23:37;;;;;;;2.67;1.00;;;8.30;99.90;;;;;;5055526;28;20434;-82
2021/05/14 02:26:04;;;;;;;1.13;0.90;;;8.30;99.90;;;;;;5055560;28;20441;-82
2021/05/14 02:28:30;;;;;;;1.60;0.93;;;8.30;99.90;;;;;;5055388;28;20988;-82
2021/05/14 02:30:57;;;;;;;1.70;1.50;;;8.40;99.90;;;;;;5055637;28;20478;-82
2021/05/14 02:33:24;;;;;;;0.90;0.90;;;8.30;99.90;;;;;;5055613;28;20453;-82
2021/05/14 02:35:50;;;;;;;1.00;0.90;;;8.30;99.90;;;;;;5055652;28;20441;-82
2021/05/14 02:38:16;;;;;;;1.07;0.90;;;8.30;99.90;;;;;;5055490;28;20478;-82
2021/05/14 02:40:43;;;;;;;1.13;1.00;;;8.30;99.90;;;;;;5055497;28;20521;-82
2021/05/14 02:43:09;;;;;;;1.00;0.90;;;8.30;99.90;;;;;;5055153;28;20945;-82
2021/05/14 02:45:36;;;;;;;1.27;1.17;;;8.30;99.90;;;;;;5055164;28;20485;-82
2021/05/14 02:48:04;;;;;;;1.00;0.90;;;8.30;99.90;;;;;;5055332;28;20466;-82
2021/05/14 02:50:30;;;;;;;0.90;0.90;;;8.30;99.90;;;;;;5053981;28;20607;-83
2021/05/14 02:52:56;;;;;;;1.53;1.10;;;8.30;99.90;;;;;;5055307;28;20579;-82
2021/05/14 02:55:22;;;;;;;1.10;1.00;;;8.30;99.90;;;;;;5054913;28;20953;-82
2021/05/14 02:57:51;;;;;;;1.27;1.17;;;8.20;99.90;;;;;;5054706;28;20953;-82
2021/05/14 03:00:19;;;;;;;1.00;1.00;;;8.20;99.90;;;;;;5055161;28;20449;-82
2021/05/14 03:02:45;;;;;;;1.70;0.97;;;8.20;99.90;;;;;;5055119;28;20454;-82
2021/05/14 03:05:13;;;;;;;1.10;1.10;;;8.10;99.90;;;;;;5055055;28;20453;-82
2021/05/14 03:07:39;;;;;;;1.50;1.13;;;8.00;99.90;;;;;;5054743;28;20438;-82
2021/05/14 03:10:06;;;;;;;1.17;1.07;;;7.90;99.90;;;;;;5054933;28;20536;-82
2021/05/14 03:12:33;;;;;;;0.80;0.80;;;7.90;99.90;;;;;;5054929;28;20441;-82
2021/05/14 03:14:59;;;;;;;2.20;2.10;;;7.80;99.90;;;;;;5054616;28;20442;-82
2021/05/14 03:17:25;;;;;;;0.90;0.90;;;7.70;99.90;;;;;;5054810;28;20441;-82
2021/05/14 03:19:52;;;;;;;1.57;1.07;;;7.80;99.90;;;;;;5054643;28;20492;-82
2021/05/14 03:22:19;;;;;;;1.23;1.13;;;7.80;99.90;;;;;;5054453;28;20933;-82
2021/05/14 03:24:45;;;;;;;1.60;1.23;;;7.70;99.90;;;;;;5054664;28;20445;-82
2021/05/14 03:27:11;;;;;;;2.13;1.53;;;7.60;99.90;;;;;;5054324;28;20454;-82
2021/05/14 03:29:37;;;;;;;1.17;1.00;;;7.60;99.90;;;;;;5054478;28;20486;-82
2021/05/14 03:32:04;;;;;;;2.40;1.10;;;7.60;99.90;;;;;;5054260;28;20948;-82
2021/05/14 03:34:31;;;;;;;1.77;1.13;;;7.60;99.90;;;;;;5054194;28;20948;-82
2021/05/14 03:36:57;;;;;;;1.60;1.10;;;7.60;99.90;;;;;;5054236;28;20986;-82
2021/05/14 03:39:26;;;;;;;1.30;1.10;;;7.50;99.90;;;;;;5054337;28;20469;-82
2021/05/14 03:41:53;;;;;;;2.50;1.20;;;7.50;99.90;;;;;;5054031;28;20957;-82
2021/05/14 03:44:20;;;;;;;0.87;0.87;;;7.50;99.90;;;;;;5054302;28;20461;-82
2021/05/14 03:46:46;;;;;;;2.23;1.13;;;7.50;99.90;;;;;;5053986;28;20494;-81
2021/05/14 03:49:12;;;;;;;1.37;1.20;;;7.50;99.90;;;;;;5054071;28;20465;-82
2021/05/14 03:51:39;;;;;;;1.10;0.90;;;7.50;99.90;;;;;;5054184;28;20473;-81
2021/05/14 03:54:06;;;;;;;4.20;1.37;;;7.50;99.90;;;;;;5053867;28;20434;-82
2021/05/14 03:56:34;;;;;;;1.07;0.97;;;7.50;99.90;;;;;;5054084;28;20495;-82
2021/05/14 03:59:00;;;;;;;1.10;1.10;;;7.50;99.90;;;;;;5053672;28;20476;-82
2021/05/14 04:01:28;;;;;;;0.90;0.90;;;7.40;99.90;;;;;;5053296;28;20454;-82
2021/05/14 04:03:55;;;;;;;1.30;1.17;;;7.50;99.90;;;;;;5053982;28;20454;-82
2021/05/14 04:06:21;;;;;;;1.40;1.30;;;7.50;99.90;;;;;;5053916;28;20442;-82
2021/05/14 04:08:47;;;;;;;3.50;0.90;;;7.50;99.90;;;;;;5053818;28;20470;-82
2021/05/14 04:11:28;;;;;;;1.17;0.90;;;7.50;99.90;;;;;;5053758;28;20490;-82
2021/05/14 04:16:40;;;;;;;1.37;0.97;;;7.60;99.90;;;;;;5053812;28;20785;-82
2021/05/14 04:19:06;;;;;;;0.70;0.70;;;7.50;99.90;;;;;;5053299;28;20981;-82
2021/05/14 04:21:32;;;;;;;2.80;1.50;;;7.50;99.90;;;;;;5053472;28;20458;-81
2021/05/14 04:23:58;;;;;;;3.83;0.90;;;7.50;99.90;;;;;;5053628;28;20521;-82
2021/05/14 04:26:25;;;;;;;1.17;0.90;;;7.60;99.90;;;;;;5053636;28;20811;-82
2021/05/14 04:28:51;;;;;;;0.83;0.83;;;7.60;99.90;;;;;;5053489;28;20496;-82
2021/05/14 04:31:18;;;;;;;0.83;0.83;;;7.60;99.90;;;;;;5053119;28;20486;-81
2021/05/14 04:33:44;;;;;;;1.17;0.90;;;7.60;99.90;;;;;;5053219;28;20971;-82
2021/05/14 04:36:10;;;;;;;0.97;0.90;;;7.60;99.90;;;;;;5053447;28;20450;-82
2021/05/14 04:38:36;;;;;;;2.87;1.00;;;7.70;99.90;;;;;;5053375;28;20511;-81
2021/05/14 04:41:03;;;;;;;1.63;0.97;;;7.70;99.90;;;;;;5053054;28;20967;-82
2021/05/14 04:43:29;;;;;;;1.80;0.90;;;7.80;99.90;;;;;;5053041;28;20870;-82
2021/05/14 04:45:55;;;;;;;0.90;0.70;;;7.80;99.90;;;;;;5053032;28;20481;-81
2021/05/14 04:48:22;;;;;;;1.53;1.13;;;7.90;99.90;;;;;;5052973;28;21060;-82
2021/05/14 04:50:49;;;;;;;1.00;0.90;;;7.90;99.90;;;;;;5052883;28;20482;-82
2021/05/14 04:53:16;;;;;;;1.23;1.13;;;7.90;99.90;;;;;;5053334;28;20839;-82
2021/05/14 04:55:43;;;;;;;0.97;0.87;;;8.00;99.90;;;;;;5052977;28;20975;-82
2021/05/14 04:58:09;;;;;;;3.00;1.00;;;8.00;99.90;;;;;;5053165;28;20466;-81
2021/05/14 05:00:35;;;;;;;1.10;1.00;;;8.00;99.90;;;;;;5053183;28;20452;-82
2021/05/14 05:03:01;;;;;;;1.43;1.30;;;8.00;99.90;;;;;;5053200;28;20446;-81
2021/05/14 05:05:30;;;;;;;1.67;1.17;;;8.10;99.90;;;;;;5052933;28;20453;-82
2021/05/14 05:07:56;;;;;;;1.03;1.03;;;8.10;99.90;;;;;;5053060;28;20514;-82
2021/05/14 05:10:22;;;;;;;1.17;0.80;;;8.20;99.90;;;;;;5053064;28;20485;-82
2021/05/14 05:12:48;;;;;;;1.13;0.97;;;8.20;99.90;;;;;;5053473;28;20461;-82
2021/05/14 05:15:15;;;;;;;3.33;1.47;;;8.20;99.90;;;;;;5057022;28;20450;-81
2021/05/14 05:17:41;;;;;;;1.23;0.90;;;8.30;99.90;;;;;;5056958;28;20448;-82
2021/05/14 05:20:09;;;;;;;1.50;1.50;;;8.30;99.90;;;;;;5057012;28;20434;-82
2021/05/14 05:22:36;;;;;;;1.83;0.93;;;8.40;99.90;;;;;;5057057;28;20414;-82
2021/05/14 05:25:02;;;;;;;1.73;1.00;;;8.50;99.90;;;;;;5056966;28;20457;-81
2021/05/14 05:27:28;;;;;;;1.20;1.10;;;8.50;99.90;;;;;;5056959;28;20437;-82
2021/05/14 05:29:54;;;;;;;0.70;0.70;;;8.60;99.90;;;;;;5056438;28;21030;-82
2021/05/14 05:32:21;;;;;;;0.80;0.80;;;8.60;99.90;;;;;;5056701;28;20503;-82
2021/05/14 05:34:47;;;;;;;0.97;0.97;;;8.60;99.90;;;;;;5056486;28;20941;-82
2021/05/14 05:37:14;;;;;;;1.87;1.10;;;8.60;99.90;;;;;;5056592;28;20458;-82
2021/05/14 05:39:41;;;;;;;0.80;0.80;;;8.60;99.90;;;;;;5056268;28;20462;-82
2021/05/14 05:42:07;;;;;;;1.30;1.20;;;8.70;99.90;;;;;;5056642;28;20454;-82
2021/05/14 05:44:33;;;;;;;1.30;0.90;;;8.70;99.90;;;;;;5056295;28;20937;-81
2021/05/14 05:47:00;;;;;;;1.13;1.03;;;8.80;99.90;;;;;;5056183;28;20535;-82
2021/05/14 05:49:26;;;;;;;1.50;0.97;;;8.90;99.90;;;;;;5056365;28;20462;-82
2021/05/14 05:51:53;;;;;;;1.30;1.10;;;9.10;99.90;;;;;;5056467;28;20507;-81
2021/05/14 05:54:19;;;;;;;1.10;1.00;;;9.30;99.90;;;;;;5056436;28;20510;-82
2021/05/14 05:56:47;;;;;;;0.80;0.80;;;9.50;99.90;;;;;;5056425;28;20499;-82
2021/05/14 05:59:16;;;;;;;1.97;1.27;;;9.90;99.90;;;;;;5056206;28;20511;-82
2021/05/14 06:01:43;;;;;;;0.70;0.70;;;10.40;99.90;;;;;;5055944;28;21047;-82
2021/05/14 06:04:09;;;;;;;0.70;0.70;;;10.80;99.90;;;;;;5056254;28;20453;-82
2021/05/14 06:06:35;;;;;;;0.90;0.90;;;11.20;99.90;;;;;;5055939;28;20457;-83
2021/05/14 06:09:02;;;;;;;0.80;0.80;;;11.30;99.90;;;;;;5055938;28;20920;-82
2021/05/14 06:11:28;;;;;;;3.07;0.70;;;11.20;99.90;;;;;;5056033;28;20493;-82
2021/05/14 06:13:55;;;;;;;0.70;0.70;;;11.20;99.90;;;;;;5055744;28;20450;-82
2021/05/14 06:16:21;;;;;;;0.93;0.80;;;11.20;99.90;;;;;;5056014;28;20441;-82
2021/05/14 06:18:52;;;;;;;1.07;0.97;;;11.20;99.90;;;;;;5055945;28;20505;-82
2021/05/14 06:21:19;;;;;;;0.70;0.70;;;11.30;99.90;;;;;;5055969;28;20909;-82
2021/05/14 06:23:46;;;;;;;0.80;0.80;;;11.60;99.90;;;;;;5055636;28;20442;-82
2021/05/14 06:26:12;;;;;;;0.80;0.60;;;12.00;99.90;;;;;;5055862;28;20449;-82
2021/05/14 06:28:38;;;;;;;0.70;0.67;;;12.40;99.90;;;;;;5055419;28;20988;-83
2021/05/14 06:31:05;;;;;;;1.67;0.53;;;12.90;99.90;;;;;;5055791;28;20866;-84
2021/05/14 06:33:31;;;;;;;1.07;0.50;;;13.30;99.90;;;;;;5055395;28;20835;-83
2021/05/14 06:36:01;;;;;;;0.60;0.60;;;13.70;99.90;;;;;;5055309;28;20460;-82
2021/05/14 06:38:28;;;;;;;0.60;0.60;;;13.90;99.90;;;;;;5055287;28;20477;-83
2021/05/14 06:40:54;;;;;;;1.90;0.60;;;14.10;99.90;;;;;;5055226;28;20835;-83
2021/05/14 06:43:21;;;;;;;0.63;0.60;;;14.40;99.90;;;;;;5055239;28;20440;-83
2021/05/14 06:45:47;;;;;;;0.50;0.50;;;14.40;99.90;;;;;;5055147;28;20481;-82
2021/05/14 06:48:15;;;;;;;0.60;0.50;;;14.70;99.90;;;;;;5055228;28;20474;-83
2021/05/14 06:50:45;;;;;;;0.60;0.60;;;15.10;99.90;;;;;;5055875;28;20485;-84
2021/05/14 06:53:12;;;;;;;0.50;0.50;;;15.50;99.90;;;;;;5055174;28;20450;-82
2021/05/14 06:55:38;;;;;;;0.70;0.70;;;16.10;99.90;;;;;;5055029;28;20967;-83
2021/05/14 06:58:04;;;;;;;0.50;0.50;;;16.70;99.90;;;;;;5055251;28;20469;-83
2021/05/14 07:00:31;;;;;;;0.60;0.50;;;17.30;99.90;;;;;;5055076;28;20445;-83
2021/05/14 07:02:57;;;;;;;0.87;0.50;;;18.30;99.20;;;;;;5054961;28;20552;-83
2021/05/14 07:05:24;;;;;;;0.65;0.55;;;19.40;94.50;;;;;;5055193;28;20556;-83
2021/05/14 07:07:52;;;;;;;0.70;0.50;;;20.30;89.60;;;;;;5054983;28;20187;-84
2021/05/14 07:10:19;;;;;;;0.43;0.40;;;21.30;84.50;;;;;;5054724;28;20232;-83
2021/05/14 07:12:45;;;;;;;1.13;0.50;;;22.50;77.50;;;;;;5054857;28;20736;-84
2021/05/14 07:15:12;;;;;;;0.90;0.40;;;23.70;67.60;;;;;;5055009;28;20273;-84
2021/05/14 07:17:38;;;;;;;0.40;0.40;;;23.90;64.70;;;;;;5055065;28;20598;-85
2021/05/14 07:20:07;;;;;;;0.50;0.47;;;24.40;62.10;;;;;;5054918;28;20589;-84
2021/05/14 07:22:34;;;;;;;0.63;0.50;;;24.30;58.80;;;;;;5054775;28;20187;-84
2021/05/14 07:25:00;;;;;;;0.50;0.50;;;24.30;59.20;;;;;;5054777;28;20187;-84
2021/05/14 07:27:26;;;;;;;0.85;0.40;;;24.30;57.30;;;;;;5054692;28;20621;-84
2021/05/14 07:29:53;;;;;;;0.73;0.52;;;24.40;56.90;;;;;;5054529;28;20236;-84
2021/05/14 07:32:19;;;;;;;0.40;0.40;;;24.80;55.30;;;;;;5054593;28;20207;-84
2021/05/14 07:34:45;;;;;;;0.50;0.50;;;25.10;55.10;;;;;;5054519;28;20576;-84
2021/05/14 07:37:11;;;;;;;0.93;0.50;;;25.50;55.40;;;;;;5053513;28;20669;-84
2021/05/14 07:39:39;;;;;;;0.50;0.50;;;26.80;52.50;;;;;;5054363;28;20289;-84
2021/05/14 07:42:06;;;;;;;0.50;0.50;;;27.90;50.40;;;;;;5054413;28;20205;-84
2021/05/14 07:44:32;;;;;;;0.73;0.50;;;29.10;48.00;;;;;;5054995;28;20217;-84
2021/05/14 07:46:59;;;;;;;6.82;0.60;;;30.10;45.80;;;;;;5037438;28;20722;-84
2021/05/14 07:49:25;;;;;;;0.50;0.50;;;31.40;42.50;;;;;;5033958;28;20659;-85
2021/05/14 07:51:51;;;;;;;0.40;0.40;;;31.80;40.00;;;;;;5033952;28;20206;-84
2021/05/14 07:54:18;;;;;;;1.02;0.50;;;32.10;38.80;;;;;;5034192;28;20203;-84
2021/05/14 07:56:45;;;;;;;0.47;0.47;;;32.60;38.20;;;;;;5033935;28;20196;-84
2021/05/14 07:59:11;;;;;;;0.55;0.50;;;33.20;36.00;;;;;;5033812;28;20232;-84
2021/05/14 08:01:38;;;;;;;0.55;0.55;;;33.30;36.20;;;;;;5034019;28;20204;-84
2021/05/14 08:04:05;;;;;;;0.60;0.50;;;33.10;35.70;;;;;;5034094;28;20209;-84
2021/05/14 08:06:31;;;;;;;0.50;0.50;;;33.10;35.50;;;;;;5033970;28;20199;-84
2021/05/14 08:08:59;;;;;;;0.60;0.50;;;33.10;35.00;;;;;;5033482;28;20592;-84
2021/05/14 08:11:25;;;;;;;0.52;0.52;;;32.60;36.60;;;;;;5033729;28;20281;-84
2021/05/14 08:13:53;;;;;;;0.50;0.50;;;32.00;36.50;;;;;;5033532;28;20204;-84
2021/05/14 08:16:19;;;;;;;0.80;0.50;;;31.00;37.50;;;;;;5033619;28;20216;-85
2021/05/14 08:18:45;;;;;;;0.50;0.50;;;29.70;39.10;;;;;;5033575;28;20230;-84
2021/05/14 08:21:12;;;;;;;0.50;0.50;;;28.90;40.90;;;;;;5033418;28;20205;-83
2021/05/14 08:23:38;;;;;;;0.65;0.60;;;27.40;41.90;;;;;;5033591;28;20212;-84
2021/05/14 08:26:05;;;;;;;0.95;0.50;;;26.60;44.20;;;;;;5033681;28;20205;-85
2021/05/14 08:28:31;;;;;;;0.60;0.43;;;25.50;44.80;;;;;;5033431;28;20226;-84
2021/05/14 08:30:58;;;;;;;0.40;0.40;;;24.90;47.40;;;;;;5033494;28;20223;-84
2021/05/14 08:33:26;;;;;;;0.47;0.47;;;24.90;47.90;;;;;;5033225;28;20203;-83
2021/05/14 08:35:52;;;;;;;0.40;0.40;;;24.70;46.70;;;;;;5033938;28;20202;-84
2021/05/14 08:38:19;;;;;;;0.90;0.40;;;24.50;47.00;;;;;;5033269;28;20278;-84
2021/05/14 08:40:45;;;;;;;0.40;0.40;;;24.60;45.80;;;;;;5034191;28;20203;-84
2021/05/14 08:43:12;;;;;;;0.82;0.43;;;23.80;46.90;;;;;;5033414;28;20234;-84
2021/05/14 08:45:39;;;;;;;0.40;0.40;;;22.90;48.70;;;;;;5038458;28;20234;-84
2021/05/14 08:48:11;;;;;;;0.40;0.40;;;22.60;50.40;;;;;;5053171;28;20300;-84
2021/05/14 08:50:39;;;;;;;0.38;0.38;;;23.20;48.40;;;;;;5053425;28;20246;-84
2021/05/14 08:53:05;;;;;;;1.48;0.40;;;23.70;47.50;;;;;;5053260;28;20202;-84
2021/05/14 08:55:32;;;;;;;0.50;0.50;;;24.00;48.10;;;;;;5052875;28;20195;-84
2021/05/14 08:57:58;;;;;;;1.13;0.43;;;24.20;47.40;;;;;;5053200;28;20636;-84
2021/05/14 09:00:25;;;;;;;0.47;0.47;;;24.50;47.90;;;;;;5053186;28;20183;-84
2021/05/14 09:02:53;;;;;;;4.65;0.50;;;24.30;47.00;;;;;;5053073;28;20194;-83
2021/05/14 09:05:40;;;;;;;0.70;0.40;;;23.50;48.30;;;;;;5052836;28;20191;-84
2021/05/14 09:08:06;;;;;;;0.50;0.47;;;22.50;50.90;;;;;;5053237;28;20316;-83
2021/05/14 09:10:34;;;;;;;0.40;0.40;;;21.30;52.70;;;;;;5053303;28;20219;-83
2021/05/14 09:13:01;;;;;;;0.50;0.50;;;20.50;53.90;;;;;;5053064;28;20199;-83
2021/05/14 09:15:29;;;;;;;0.40;0.40;;;19.90;55.00;;;;;;5052889;28;20181;-83
2021/05/14 09:18:10;;;;;;;0.40;0.40;;;19.60;57.10;;;;;;5052950;28;20445;-84
2021/05/14 09:20:38;;;;;;;1.30;0.40;;;19.70;54.20;;;;;;5052788;28;20414;-83
2021/05/14 09:23:32;;;;;;;1.63;0.50;;;19.60;53.00;;;;;;5052863;28;20441;-83
2021/05/14 09:26:00;;;;;;;0.40;0.40;;;19.30;54.70;;;;;;5052898;28;20414;-83
2021/05/14 09:28:28;;;;;;;0.50;0.40;;;18.80;55.40;;;;;;5052783;28;20469;-83
2021/05/14 09:31:13;;;;;;;0.60;0.60;;;18.60;58.00;;;;;;5052819;28;20474;-83
2021/05/14 09:33:41;;;;;;;1.43;0.83;;;18.30;57.90;;;;;;5052981;28;20848;-83
2021/05/14 09:36:09;;;;;;;0.40;0.40;;;17.90;58.50;;;;;;5052667;28;20414;-82
2021/05/14 09:38:45;;;;;;;0.60;0.40;;;17.60;59.10;;;;;;5052816;28;20468;-83
2021/05/14 09:41:35;;;;;;;0.50;0.50;;;17.30;60.70;;;;;;5052783;28;20430;-83
2021/05/14 09:44:07;;;;;;;3.33;0.87;;;17.10;62.20;;;;;;5052849;28;20815;-83
2021/05/14 09:46:36;;;;;;;0.50;0.50;;;16.80;63.40;;;;;;5052418;28;20481;-82
2021/05/14 09:49:04;;;;;;;0.60;0.60;;;16.60;64.50;;;;;;5052284;28;20907;-82
2021/05/14 09:51:32;;;;;;;0.50;0.50;;;16.50;66.10;;;;;;5052717;28;20476;-82
2021/05/14 09:54:18;;;;;;;0.50;0.50;;;16.50;66.60;;;;;;5052617;28;20890;-82
2021/05/14 09:56:45;;;;;;;1.67;0.50;;;16.60;65.50;;;;;;5052705;28;20452;-83
2021/05/14 09:59:12;;;;;;;0.60;0.47;;;16.70;65.80;;;;;;5053543;28;20509;-83
2021/05/14 10:01:38;;;;;;;0.50;0.50;;;16.90;65.30;;;;;;5056631;28;20429;-83
2021/05/14 10:04:06;;;;;;;0.57;0.50;;;17.10;63.60;;;;;;5055979;28;20932;-83
2021/05/14 10:06:35;;;;;;;0.50;0.40;;;17.20;61.20;;;;;;5056243;28;20524;-83
2021/05/14 10:09:08;;;;;;;0.80;0.60;;;17.40;61.40;;;;;;5056089;28;20470;-83
2021/05/14 10:11:35;;;;;;;0.50;0.50;;;18.40;59.60;;;;;;5056067;28;20505;-83
2021/05/14 10:14:03;;;;;;;1.03;0.40;;;19.70;59.20;;;;;;5055840;28;20430;-83
2021/05/14 10:16:30;;;;;;;0.40;0.40;;;20.70;57.00;;;;;;5056382;28;20410;-83
2021/05/14 10:18:58;;;;;;;3.27;1.17;;;20.90;54.60;;;;;;5055944;28;20469;-83
2021/05/14 10:21:25;;;;;;;1.97;1.33;;;20.70;55.70;;;;;;5055974;28;20437;-83
2021/05/14 10:23:51;;;;;;;2.63;0.50;;;20.20;55.80;;;;;;5055907;28;20441;-83
2021/05/14 10:26:18;;;;;;;2.70;0.60;;;19.60;57.30;;;;;;5055922;28;20428;-83
2021/05/14 10:28:47;;;;;;;1.53;0.50;;;19.00;58.80;;;;;;5055754;28;20469;-83
2021/05/14 10:31:24;;;;;;;2.00;0.60;;;18.50;60.70;;;;;;5055458;28;20454;-83
2021/05/14 10:33:52;;;;;;;0.50;0.40;;;18.20;61.10;;;;;;5055425;28;20909;-83
2021/05/14 10:36:49;;;;;;;2.67;0.47;;;17.80;61.80;;;;;;5055750;28;20844;-83
2021/05/14 10:39:27;;;;;;;1.27;0.60;;;17.50;62.20;;;;;;5055587;28;20472;-83
2021/05/14 10:42:01;;;;;;;0.53;0.53;;;17.20;62.90;;;;;;5055597;28;20434;-83
2021/05/14 10:44:48;;;;;;;0.40;0.40;;;17.00;61.20;;;;;;5055737;28;20495;-82
2021/05/14 10:47:56;;;;;;;0.50;0.40;;;16.80;61.00;;;;;;5055032;28;20477;-82
2021/05/14 10:50:34;;;;;;;0.40;0.40;;;16.70;64.20;;;;;;5055041;28;20976;-78
2021/05/14 10:53:30;;;;;;;0.80;0.50;;;16.70;64.90;;;;;;5055483;28;20998;-80
2021/05/14 10:56:12;;;;;;;0.70;0.50;;;16.80;63.80;;;;;;5055034;28;20434;-82
2021/05/14 10:58:44;;;;;;;1.17;0.40;;;16.80;62.90;;;;;;5054691;28;20547;-82
2021/05/14 11:01:29;;;;;;;0.83;0.40;;;16.90;62.30;;;;;;5055615;28;20449;-82
2021/05/14 11:03:56;;;;;;;0.70;0.50;;;17.00;61.70;;;;;;5055993;28;20451;-82
2021/05/14 11:06:24;;;;;;;0.47;0.43;;;17.20;63.40;;;;;;5055162;28;20430;-82
2021/05/14 11:09:01;;;;;;;0.40;0.40;;;17.70;64.50;;;;;;5054998;28;20465;-82
2021/05/14 11:11:28;;;;;;;0.50;0.40;;;18.20;61.40;;;;;;5053853;28;20469;-82
2021/05/14 11:13:55;;;;;;;2.87;0.60;;;18.30;58.70;;;;;;5055518;28;20430;-82
2021/05/14 11:16:46;;;;;;;0.70;0.50;;;18.20;59.30;;;;;;5054938;28;20528;-82
2021/05/14 11:19:24;;;;;;;0.60;0.40;;;18.20;60.40;;;;;;5054731;28;20465;-81
2021/05/14 11:22:13;;;;;;;1.13;0.40;;;18.00;60.70;;;;;;5054846;28;20459;-82
2021/05/14 11:24:45;;;;;;;1.17;1.00;;;17.90;61.30;;;;;;5054515;28;20434;-82
2021/05/14 11:27:13;;;;;;;1.27;0.50;;;18.00;63.50;;;;;;5054448;28;20933;-82
2021/05/14 11:29:46;;;;;;;0.50;0.50;;;18.10;63.10;;;;;;5054650;28;20866;-83
2021/05/14 11:32:21;;;;;;;0.60;0.60;;;18.30;63.80;;;;;;5054586;28;20422;-82
2021/05/14 11:34:58;;;;;;;0.40;0.30;;;18.50;59.90;;;;;;5054309;28;20484;-82
2021/05/14 11:37:26;;;;;;;0.50;0.50;;;18.50;57.70;;;;;;5054493;28;20835;-82
2021/05/14 11:39:53;;;;;;;2.67;0.40;;;18.30;59.30;;;;;;5054311;28;20485;-82
2021/05/14 11:42:20;;;;;;;0.50;0.50;;;18.10;59.80;;;;;;5054457;28;20434;-83
2021/05/14 11:44:56;;;;;;;0.93;0.50;;;17.80;59.40;;;;;;5054445;28;20410;-83
2021/05/14 11:47:22;;;;;;;0.50;0.40;;;17.70;58.80;;;;;;5053878;28;20484;-82
2021/05/14 11:49:49;;;;;;;0.50;0.40;;;17.70;59.10;;;;;;5054124;28;20469;-82
2021/05/14 11:52:15;;;;;;;0.77;0.40;;;17.50;60.50;;;;;;5054228;28;20437;-83
2021/05/14 11:54:41;;;;;;;1.17;0.37;;;17.40;62.10;;;;;;5054161;28;20430;-83
2021/05/14 11:57:08;;;;;;;0.80;0.57;;;17.30;62.60;;;;;;5054166;28;20411;-83
2021/05/14 11:59:34;;;;;;;4.30;0.50;;;17.20;64.10;;;;;;5053722;28;20450;-83
2021/05/14 12:02:01;;;;;;;0.50;0.40;;;17.30;63.90;;;;;;5053728;28;20422;-83
2021/05/14 12:04:27;;;;;;;0.60;0.50;;;17.70;62.30;;;;;;5054043;28;20411;-83
2021/05/14 12:06:54;;;;;;;0.87;0.50;;;18.00;60.90;;;;;;5053962;28;20437;-83
2021/05/14 12:09:20;;;;;;;1.13;0.50;;;18.10;60.50;;;;;;5053793;28;20469;-83
2021/05/14 12:11:47;;;;;;;0.50;0.47;;;17.90;59.80;;;;;;5053850;28;20478;-83
2021/05/14 12:14:22;;;;;;;2.43;0.47;;;17.60;60.00;;;;;;5054041;28;20819;-78
2021/05/14 12:16:48;;;;;;;1.00;0.40;;;17.40;61.30;;;;;;5053949;28;20433;-78
2021/05/14 12:19:15;;;;;;;0.50;0.40;;;17.20;61.20;;;;;;5053385;28;21050;-78
2021/05/14 12:21:42;;;;;;;1.00;0.50;;;17.00;62.00;;;;;;5053443;28;20437;-78
2021/05/14 12:24:16;;;;;;;0.60;0.50;;;16.90;63.80;;;;;;5053556;28;20418;-78
2021/05/14 12:26:42;;;;;;;0.50;0.50;;;17.00;62.50;;;;;;5053361;28;20445;-78
2021/05/14 12:29:22;;;;;;;0.70;0.40;;;17.10;61.30;;;;;;5053397;28;20998;-78
2021/05/14 12:31:55;;;;;;;0.70;0.50;;;17.20;60.70;;;;;;5053602;28;20469;-78
2021/05/14 12:34:23;;;;;;;0.60;0.60;;;17.20;59.90;;;;;;5053686;28;20433;-78
2021/05/14 12:36:53;;;;;;;0.50;0.40;;;17.10;60.20;;;;;;5053648;28;20430;-78
2021/05/14 12:39:20;;;;;;;0.40;0.40;;;17.10;60.80;;;;;;5053595;28;20473;-78
2021/05/14 12:41:56;;;;;;;0.50;0.40;;;17.00;61.10;;;;;;5053575;28;20484;-77
2021/05/14 12:44:25;;;;;;;0.93;0.40;;;17.10;59.70;;;;;;5054124;28;20430;-78
2021/05/14 12:47:06;;;;;;;0.80;0.50;;;17.20;58.40;;;;;;5053129;28;20564;-78
2021/05/14 12:49:34;;;;;;;3.10;0.40;;;17.00;59.60;;;;;;5053821;28;20466;-78
2021/05/14 12:52:04;;;;;;;1.23;0.43;;;16.90;59.70;;;;;;5053062;28;20998;-78
2021/05/14 12:54:32;;;;;;;1.97;0.40;;;16.90;57.90;;;;;;5053283;28;20426;-77
2021/05/14 12:56:58;;;;;;;1.67;0.40;;;16.70;59.10;;;;;;5053016;28;20806;-77
2021/05/14 12:59:24;;;;;;;0.57;0.50;;;16.60;62.90;;;;;;5053198;28;20470;-78